Time;durP1;ratioP1;P1;durP2;ratioP2;P2;SDS_P1;SDS_P2;PMS_P1;PMS_P2;Temp;Humidity;BMP_temperature;BMP_pressure;BME280_temperature;BME280_humidity;BME280_pressure;Samples;Min_cycle;Max_cycle;Signal;HPM_P1;HPM_P2
2021/10/01 00:01:07;;;;;;;0.40;0.30;;;;;;;11.07;64.75;101648.28;111929;1193;94461;-78
2021/10/01 00:03:33;;;;;;;0.40;0.30;;;;;;;10.92;65.14;101652.31;111959;1192;138699;-78
2021/10/01 00:06:01;;;;;;;0.40;0.30;;;;;;;10.79;65.43;101653.65;111929;1192;93963;-79
2021/10/01 00:08:27;;;;;;;0.40;0.30;;;;;;;10.70;65.59;101651.58;111740;1192;139047;-77
2021/10/01 00:10:57;;;;;;;0.40;0.30;;;;;;;10.68;65.66;101651.60;111665;1193;108107;-77
2021/10/01 00:13:24;;;;;;;0.40;0.30;;;;;;;10.60;65.74;101651.29;111790;1193;109132;-80
2021/10/01 00:15:52;;;;;;;0.40;0.40;;;;;;;10.43;66.15;101644.81;112954;1192;139679;-78
2021/10/01 00:18:19;;;;;;;0.50;0.40;;;;;;;10.31;66.53;101645.74;111774;1192;94430;-77
2021/10/01 00:20:46;;;;;;;0.40;0.30;;;;;;;10.37;66.89;101644.84;111504;1192;138890;-77
2021/10/01 00:23:13;;;;;;;0.40;0.30;;;;;;;10.53;66.58;101641.20;111621;1193;93905;-78
2021/10/01 00:25:39;;;;;;;0.40;0.40;;;;;;;10.64;66.25;101638.11;111677;1192;95558;-78
2021/10/01 00:28:06;;;;;;;0.40;0.40;;;;;;;10.70;65.96;101637.90;111577;1192;138502;-78
2021/10/01 00:30:33;;;;;;;0.40;0.30;;;;;;;10.73;65.59;101636.63;111579;1193;94085;-78
2021/10/01 00:32:59;;;;;;;0.40;0.30;;;;;;;10.70;65.81;101631.15;111714;1193;142169;-78
2021/10/01 00:35:26;;;;;;;0.40;0.40;;;;;;;10.66;65.74;101634.36;111829;1192;108569;-78
2021/10/01 00:37:52;;;;;;;0.40;0.30;;;;;;;10.67;65.71;101631.88;111645;1193;94485;-78
2021/10/01 00:40:19;;;;;;;0.40;0.30;;;;;;;10.67;65.46;101632.05;111529;1192;138889;-78
2021/10/01 00:42:46;;;;;;;0.40;0.40;;;;;;;10.69;65.44;101629.73;111758;1192;94007;-78
2021/10/01 00:45:12;;;;;;;0.50;0.40;;;;;;;10.75;65.29;101631.11;111982;1193;136560;-78
2021/10/01 00:47:39;;;;;;;0.40;0.40;;;;;;;10.80;65.28;101630.19;111671;1192;107276;-78
2021/10/01 00:50:06;;;;;;;0.40;0.30;;;;;;;10.85;64.80;101625.36;111664;1192;94074;-78
2021/10/01 00:52:33;;;;;;;0.40;0.40;;;;;;;10.76;64.73;101622.05;112814;1193;137804;-78
2021/10/01 00:55:01;;;;;;;0.40;0.40;;;;;;;10.58;64.88;101615.42;111553;1192;94054;-78
2021/10/01 00:57:28;;;;;;;0.50;0.40;;;;;;;10.45;65.25;101615.16;111497;1193;138238;-78
2021/10/01 00:59:54;;;;;;;0.40;0.30;;;;;;;10.42;65.43;101615.16;111615;1195;94499;-80
2021/10/01 01:02:21;;;;;;;0.40;0.30;;;;;;;10.43;65.50;101616.59;112438;1192;139364;-79
2021/10/01 01:04:48;;;;;;;0.50;0.40;;;;;;;10.39;65.51;101618.21;112439;1192;93983;-78
2021/10/01 01:07:32;;;;;;;0.50;0.40;;;;;;;10.32;65.53;101615.20;112360;1193;94065;-79
2021/10/01 01:10:02;;;;;;;0.40;0.40;;;;;;;10.29;65.69;101617.69;112014;1193;137817;-79
2021/10/01 01:13:00;;;;;;;0.40;0.40;;;;;;;10.29;65.90;101616.63;111769;1193;94058;-78
2021/10/01 01:15:29;;;;;;;0.50;0.40;;;;;;;10.33;65.94;101621.59;111555;1192;137282;-78
2021/10/01 01:18:01;;;;;;;0.50;0.50;;;;;;;10.44;65.73;101622.63;111649;1193;109129;-78
2021/10/01 01:20:38;;;;;;;0.40;0.30;;;;;;;10.42;65.40;101619.25;111658;1193;139937;-78
2021/10/01 01:23:26;;;;;;;0.40;0.40;;;;;;;10.42;65.35;101623.34;112266;1192;94012;-78
2021/10/01 01:25:57;;;;;;;0.50;0.40;;;;;;;10.39;65.39;101620.16;111686;1192;94480;-78
2021/10/01 01:28:42;;;;;;;0.40;0.40;;;;;;;10.48;65.33;101618.87;111708;1192;139405;-78
2021/10/01 01:31:21;;;;;;;0.40;0.30;;;;;;;10.50;65.06;101617.79;111645;1193;108563;-79
2021/10/01 01:33:49;;;;;;;0.40;0.30;;;;;;;10.51;64.87;101622.56;111664;1192;139416;-78
2021/10/01 01:36:17;;;;;;;0.40;0.40;;;;;;;10.44;64.71;101625.64;111660;1193;93996;-78
2021/10/01 01:38:51;;;;;;;0.40;0.40;;;;;;;10.30;64.85;101623.38;111447;1193;139021;-78
2021/10/01 01:41:18;;;;;;;0.40;0.40;;;;;;;10.33;65.04;101621.23;111634;1200;107188;-78
2021/10/01 01:43:45;;;;;;;0.40;0.40;;;;;;;10.27;64.95;101619.30;112103;1193;94528;-78
2021/10/01 01:46:12;;;;;;;0.50;0.40;;;;;;;10.06;65.34;101617.82;112077;1193;209588;-78
2021/10/01 01:48:39;;;;;;;0.50;0.40;;;;;;;10.05;65.40;101614.80;112204;1192;94426;-78
2021/10/01 01:51:08;;;;;;;0.50;0.40;;;;;;;10.02;65.38;101612.69;111464;1193;138566;-78
2021/10/01 01:53:35;;;;;;;0.40;0.40;;;;;;;10.01;65.51;101606.65;112011;1192;96021;-78
2021/10/01 01:56:02;;;;;;;0.50;0.50;;;;;;;9.99;65.45;101606.13;111858;1193;96080;-77
2021/10/01 01:58:29;;;;;;;0.50;0.40;;;;;;;9.92;65.21;101605.98;111430;1193;138703;-78
2021/10/01 02:00:56;;;;;;;0.50;0.40;;;;;;;9.85;65.59;101607.80;111464;1195;94404;-78
2021/10/01 02:03:23;;;;;;;0.50;0.40;;;;;;;9.83;65.77;101611.52;111648;1193;138536;-78
2021/10/01 02:05:50;;;;;;;0.50;0.40;;;;;;;9.86;65.91;101611.88;111649;1193;94094;-77
2021/10/01 02:08:17;;;;;;;0.50;0.50;;;;;;;9.90;65.55;101616.48;111473;1192;139859;-78
2021/10/01 02:10:44;;;;;;;0.50;0.40;;;;;;;9.80;65.49;101621.28;111633;1193;94097;-78
2021/10/01 02:13:12;;;;;;;0.50;0.40;;;;;;;9.74;65.71;101616.15;111606;1192;94271;-77
2021/10/01 02:15:40;;;;;;;0.50;0.40;;;;;;;9.73;65.77;101619.89;111470;1193;140289;-78
2021/10/01 02:18:08;;;;;;;0.50;0.40;;;;;;;9.76;65.83;101618.82;111658;1192;93954;-77
2021/10/01 02:20:36;;;;;;;0.40;0.40;;;;;;;9.73;65.70;101618.83;111555;1192;140854;-77
2021/10/01 02:23:03;;;;;;;0.50;0.40;;;;;;;9.67;66.01;101619.20;111646;1192;109143;-77
2021/10/01 02:28:24;;;;;;;0.50;0.40;;;;;;;9.58;66.04;101624.36;111426;1193;139723;-77
2021/10/01 02:30:52;;;;;;;0.50;0.50;;;;;;;9.58;66.06;101627.55;112501;1192;109140;-77
2021/10/01 02:33:40;;;;;;;0.50;0.40;;;;;;;9.58;65.98;101625.61;111656;1192;140449;-77
2021/10/01 02:36:08;;;;;;;0.50;0.50;;;;;;;9.52;66.05;101628.09;112561;1192;94237;-78
2021/10/01 02:38:35;;;;;;;0.50;0.40;;;;;;;9.49;66.20;101632.36;111526;1192;139263;-77
2021/10/01 02:41:02;;;;;;;0.50;0.40;;;;;;;9.54;66.20;101633.23;111926;1193;94417;-78
2021/10/01 02:43:29;;;;;;;0.50;0.40;;;;;;;9.52;65.91;101632.00;112402;1193;93982;-78
2021/10/01 02:45:56;;;;;;;0.50;0.40;;;;;;;9.47;65.95;101631.31;112688;1192;138202;-78
2021/10/01 02:48:22;;;;;;;0.40;0.40;;;;;;;9.50;66.15;101638.92;112147;1192;93963;-79
2021/10/01 02:51:01;;;;;;;0.40;0.40;;;;;;;9.58;65.59;101641.73;111905;1193;140457;-79
2021/10/01 02:53:42;;;;;;;0.50;0.40;;;;;;;9.62;65.12;101643.16;112431;1193;109683;-79
2021/10/01 02:56:29;;;;;;;0.50;0.40;;;;;;;9.70;65.11;101643.13;112473;1192;138289;-79
2021/10/01 02:59:02;;;;;;;0.50;0.50;;;;;;;9.76;65.06;101645.77;112410;1192;94007;-78
2021/10/01 03:01:30;;;;;;;0.50;0.50;;;;;;;9.76;64.77;101647.20;112452;1192;108796;-79
2021/10/01 03:04:02;;;;;;;0.50;0.40;;;;;;;9.68;64.51;101647.56;112518;1192;140683;-79
2021/10/01 03:06:34;;;;;;;0.50;0.40;;;;;;;9.71;64.81;101647.02;112539;1193;93963;-78
2021/10/01 03:09:04;;;;;;;0.50;0.50;;;;;;;9.64;64.65;101652.37;112232;1192;140730;-80
2021/10/01 03:11:31;;;;;;;0.50;0.50;;;;;;;9.43;64.88;101651.86;111719;1193;109108;-78
2021/10/01 03:14:00;;;;;;;0.50;0.50;;;;;;;9.27;65.25;101650.65;112554;1192;94069;-78
2021/10/01 03:16:27;;;;;;;0.50;0.50;;;;;;;9.15;65.90;101648.88;112684;1193;139832;-78
2021/10/01 03:18:55;;;;;;;0.50;0.40;;;;;;;9.23;66.14;101649.77;112453;1192;94084;-79
2021/10/01 03:21:23;;;;;;;0.50;0.50;;;;;;;9.29;65.74;101648.70;112364;1193;139048;-79
2021/10/01 03:23:52;;;;;;;0.50;0.50;;;;;;;9.37;65.50;101647.28;112680;1192;109200;-79
2021/10/01 03:26:20;;;;;;;0.50;0.50;;;;;;;9.37;65.64;101645.67;112430;1193;139798;-79
2021/10/01 03:28:47;;;;;;;0.50;0.50;;;;;;;9.45;65.30;101645.85;112611;1193;94068;-79
2021/10/01 03:31:14;;;;;;;0.50;0.50;;;;;;;9.52;65.20;101643.00;112413;1192;93969;-78
2021/10/01 03:33:42;;;;;;;0.50;0.50;;;;;;;9.42;65.11;101644.06;112276;1193;139394;-78
2021/10/01 03:36:09;;;;;;;0.50;0.40;;;;;;;9.30;65.28;101640.02;112417;1193;94050;-78
2021/10/01 03:38:37;;;;;;;0.50;0.40;;;;;;;9.24;65.57;101629.75;111760;1193;139154;-78
2021/10/01 03:41:04;;;;;;;0.40;0.40;;;;;;;9.21;65.63;101635.24;111694;1193;109206;-77
2021/10/01 03:43:32;;;;;;;0.50;0.50;;;;;;;9.27;65.28;101634.34;111716;1193;108402;-78
2021/10/01 03:45:58;;;;;;;0.40;0.40;;;;;;;9.32;64.99;101632.55;111781;1192;140078;-79
2021/10/01 03:48:25;;;;;;;0.50;0.40;;;;;;;9.34;65.02;101635.39;111835;1192;107658;-79
2021/10/01 03:50:52;;;;;;;0.50;0.50;;;;;;;9.19;64.99;101633.99;111591;1192;139125;-79
2021/10/01 03:53:19;;;;;;;0.50;0.50;;;;;;;9.03;65.35;101633.83;111596;1192;94272;-79
2021/10/01 03:55:46;;;;;;;0.50;0.40;;;;;;;8.98;65.55;101631.17;111760;1192;94970;-79
2021/10/01 03:58:13;;;;;;;0.50;0.40;;;;;;;9.02;65.80;101632.59;112472;1192;139039;-79
2021/10/01 04:00:39;;;;;;;0.50;0.50;;;;;;;9.11;65.57;101632.76;112446;1192;94069;-79
2021/10/01 04:03:06;;;;;;;0.50;0.50;;;;;;;9.09;65.52;101631.70;112226;1192;139070;-79
2021/10/01 04:05:33;;;;;;;0.50;0.40;;;;;;;9.11;65.44;101636.84;112480;1193;94084;-79
2021/10/01 04:08:06;;;;;;;0.50;0.50;;;;;;;9.12;65.32;101638.79;112475;1192;94168;-81
2021/10/01 04:10:33;;;;;;;0.50;0.50;;;;;;;9.05;65.23;101639.14;112854;1192;139681;-78
2021/10/01 04:13:00;;;;;;;0.50;0.50;;;;;;;8.99;65.26;101644.98;111872;1193;94428;-78
2021/10/01 04:15:26;;;;;;;0.50;0.40;;;;;;;9.02;65.21;101646.58;111580;1192;137983;-78
2021/10/01 04:17:53;;;;;;;0.50;0.50;;;;;;;8.96;65.47;101648.52;111667;1192;94535;-79
2021/10/01 04:20:19;;;;;;;0.50;0.50;;;;;;;8.92;65.42;101648.52;111590;1193;139413;-81
2021/10/01 04:22:46;;;;;;;0.50;0.50;;;;;;;8.89;65.52;101650.48;112516;1192;94809;-78
2021/10/01 04:25:13;;;;;;;0.50;0.50;;;;;;;8.88;65.54;101651.89;112569;1192;93919;-78
2021/10/01 04:27:39;;;;;;;0.50;0.50;;;;;;;8.84;65.74;101652.24;111854;1193;139714;-78
2021/10/01 04:30:06;;;;;;;0.50;0.50;;;;;;;8.66;65.97;101659.11;111983;1192;94134;-79
2021/10/01 04:32:35;;;;;;;0.50;0.50;;;;;;;8.43;66.79;101655.85;111771;1192;139446;-77
2021/10/01 04:35:11;;;;;;;0.50;0.50;;;;;;;8.30;67.62;101660.77;115035;1192;92213;-80
2021/10/01 04:37:38;;;;;;;0.50;0.50;;;;;;;8.29;68.31;101662.70;113901;1192;109930;-81
2021/10/01 04:40:05;;;;;;;0.50;0.40;;;;;;;8.36;68.47;101663.08;111705;1192;136734;-78
2021/10/01 04:42:31;;;;;;;0.50;0.50;;;;;;;8.40;68.31;101664.15;111962;1192;95599;-79
2021/10/01 04:44:58;;;;;;;0.50;0.50;;;;;;;8.40;68.19;101668.21;111929;1192;139500;-78
2021/10/01 04:47:25;;;;;;;0.50;0.50;;;;;;;8.39;68.53;101666.45;111926;1193;93951;-78
2021/10/01 04:49:51;;;;;;;0.60;0.60;;;;;;;8.49;68.68;101667.93;112012;1192;94278;-79
2021/10/01 04:52:18;;;;;;;0.60;0.60;;;;;;;8.69;68.31;101669.92;111829;1192;137769;-78
2021/10/01 04:54:44;;;;;;;0.50;0.50;;;;;;;8.85;67.76;101670.48;112049;1192;94397;-81
2021/10/01 04:57:11;;;;;;;0.50;0.50;;;;;;;8.86;67.64;101664.46;112457;1192;139038;-78
2021/10/01 04:59:37;;;;;;;0.50;0.50;;;;;;;8.85;67.91;101661.27;112555;1192;94126;-78
2021/10/01 05:02:04;;;;;;;0.50;0.50;;;;;;;8.83;68.30;101660.92;112038;1192;93984;-79
2021/10/01 05:04:31;;;;;;;0.50;0.40;;;;;;;8.93;68.02;101657.38;112544;1192;139170;-79
2021/10/01 05:06:57;;;;;;;0.50;0.50;;;;;;;9.07;67.47;101659.86;112513;1193;94110;-78
2021/10/01 05:09:24;;;;;;;0.50;0.40;;;;;;;9.22;66.68;101661.28;112496;1192;138039;-79
2021/10/01 05:11:51;;;;;;;0.50;0.40;;;;;;;9.33;66.18;101667.13;112416;1193;93999;-78
2021/10/01 05:14:17;;;;;;;0.50;0.40;;;;;;;9.40;66.15;101669.42;112385;1192;139309;-78
2021/10/01 05:16:45;;;;;;;0.50;0.50;;;;;;;9.48;66.05;101667.47;112752;1192;108697;-79
2021/10/01 05:19:13;;;;;;;0.50;0.50;;;;;;;9.40;66.48;101672.63;115053;1192;92186;-79
2021/10/01 05:21:40;;;;;;;0.50;0.40;;;;;;;9.22;67.24;101670.67;114879;1192;138380;-78
2021/10/01 05:24:07;;;;;;;0.50;0.40;;;;;;;9.16;67.79;101674.58;112638;1192;93954;-78
2021/10/01 05:26:33;;;;;;;0.50;0.50;;;;;;;9.33;67.57;101679.35;112309;1192;140287;-78
2021/10/01 05:29:00;;;;;;;0.50;0.40;;;;;;;9.53;66.91;101678.09;111992;1192;94511;-79
2021/10/01 05:31:27;;;;;;;0.50;0.40;;;;;;;9.60;66.55;101680.93;112081;1192;94368;-79
2021/10/01 05:33:53;;;;;;;0.50;0.40;;;;;;;9.56;67.04;101682.52;111906;1200;138536;-78
2021/10/01 05:36:20;;;;;;;0.50;0.40;;;;;;;9.55;67.42;101683.77;111859;1192;93945;-78
2021/10/01 05:38:47;;;;;;;0.40;0.40;;;;;;;9.64;67.46;101683.93;111857;1192;140393;-78
2021/10/01 05:41:13;;;;;;;0.40;0.40;;;;;;;9.56;67.97;101686.95;112451;1192;93958;-79
2021/10/01 05:43:40;;;;;;;0.40;0.40;;;;;;;9.62;68.09;101684.48;112702;1192;96121;-78
2021/10/01 05:46:08;;;;;;;0.40;0.40;;;;;;;9.77;67.98;101687.10;112313;1192;139056;-78
2021/10/01 05:48:37;;;;;;;0.40;0.40;;;;;;;9.82;68.02;101686.02;112632;1192;108361;-78
2021/10/01 05:51:07;;;;;;;0.40;0.40;;;;;;;9.91;67.83;101684.40;112445;1192;138749;-78
2021/10/01 05:56:08;;;;;;;0.40;0.40;;;;;;;9.99;67.88;101685.45;112804;1193;93951;-78
2021/10/01 05:58:35;;;;;;;0.40;0.40;;;;;;;9.86;68.34;101685.46;112446;1192;138327;-78
2021/10/01 06:01:03;;;;;;;0.40;0.40;;;;;;;9.74;68.98;101687.46;112670;1192;108598;-78
2021/10/01 06:03:30;;;;;;;0.50;0.40;;;;;;;9.71;69.33;101685.33;112347;1192;139782;-79
2021/10/01 06:05:57;;;;;;;0.40;0.40;;;;;;;9.71;69.83;101683.92;112744;1193;93968;-80
2021/10/01 06:08:23;;;;;;;0.50;0.50;;;;;;;9.78;70.06;101686.38;112579;1192;139106;-79
2021/10/01 06:10:50;;;;;;;0.50;0.40;;;;;;;9.77;70.18;101686.92;112743;1192;94069;-79
2021/10/01 06:13:17;;;;;;;0.50;0.50;;;;;;;9.74;70.55;101686.40;112647;1192;94212;-79
2021/10/01 06:15:45;;;;;;;0.50;0.40;;;;;;;9.85;70.48;101687.44;112489;1192;140187;-79
2021/10/01 06:18:11;;;;;;;0.40;0.40;;;;;;;9.92;70.27;101686.71;112488;1192;95058;-78
2021/10/01 06:20:38;;;;;;;0.50;0.40;;;;;;;10.03;70.32;101686.85;112427;1192;139405;-78
2021/10/01 06:23:04;;;;;;;0.40;0.40;;;;;;;10.11;70.35;101687.00;112613;1192;94465;-78
2021/10/01 06:25:31;;;;;;;0.40;0.40;;;;;;;10.28;69.93;101685.34;112602;1192;95236;-78
2021/10/01 06:27:58;;;;;;;0.40;0.40;;;;;;;10.49;69.90;101686.50;111798;1192;140184;-78
2021/10/01 06:30:24;;;;;;;0.40;0.30;;;;;;;10.65;69.56;101687.14;112114;1193;94493;-77
2021/10/01 06:32:51;;;;;;;0.40;0.40;;;;;;;10.63;69.50;101686.79;111913;1192;138094;-78
2021/10/01 06:35:18;;;;;;;0.40;0.40;;;;;;;10.56;69.79;101687.02;112038;1192;93931;-78
2021/10/01 06:37:44;;;;;;;0.50;0.50;;;;;;;10.50;70.27;101690.05;112176;1192;93985;-77
2021/10/01 06:40:11;;;;;;;0.50;0.40;;;;;;;10.50;70.36;101686.50;111666;1192;139124;-77
2021/10/01 06:42:41;;;;;;;0.40;0.30;;;;;;;10.53;70.43;101687.38;111540;1192;94481;-77
2021/10/01 06:45:22;;;;;;;0.40;0.30;;;;;;;10.68;70.18;101690.84;111904;1192;139686;-77
2021/10/01 08:20:44;;;;;;;0.40;0.20;;;;;;;13.14;67.49;101681.21;112442;1192;137229;-78
2021/10/01 08:23:11;;;;;;;0.40;0.20;;;;;;;13.14;67.52;101681.57;112562;1192;109143;-78
2021/10/01 08:25:38;;;;;;;0.40;0.20;;;;;;;13.11;66.93;101683.77;112607;1192;94049;-78
2021/10/01 08:28:05;;;;;;;0.40;0.20;;;;;;;13.05;67.49;101684.55;112028;1192;139638;-78
2021/10/01 08:30:32;;;;;;;0.40;0.20;;;;;;;13.02;67.92;101680.15;112730;1192;93947;-77
2021/10/01 08:32:59;;;;;;;0.40;0.20;;;;;;;13.11;68.53;101678.23;112244;1192;139642;-78
2021/10/01 08:35:26;;;;;;;0.40;0.20;;;;;;;13.21;68.42;101675.39;111710;1192;94403;-78
2021/10/01 08:37:54;;;;;;;0.40;0.20;;;;;;;13.34;68.19;101673.94;111677;1192;93984;-76
2021/10/01 08:40:21;;;;;;;0.40;0.20;;;;;;;13.44;67.88;101676.64;111435;1192;140324;-77
2021/10/01 08:42:50;;;;;;;0.40;0.20;;;;;;;13.50;67.75;101678.33;111623;1192;93968;-77
2021/10/01 08:45:18;;;;;;;0.40;0.20;;;;;;;13.49;67.42;101675.84;111562;1193;140966;-76
2021/10/01 08:47:45;;;;;;;0.40;0.20;;;;;;;13.57;67.62;101670.86;111742;1193;106859;-77
2021/10/01 08:50:14;;;;;;;0.40;0.20;;;;;;;13.96;66.84;101670.67;111834;1192;94222;-77
2021/10/01 08:52:41;;;;;;;0.40;0.20;;;;;;;14.45;65.89;101671.42;111528;1192;139591;-77
2021/10/01 08:55:09;;;;;;;0.40;0.20;;;;;;;15.27;63.17;101670.06;111755;1192;93956;-77
2021/10/01 08:57:36;;;;;;;0.40;0.20;;;;;;;15.50;61.94;101669.84;111552;1192;139645;-76
2021/10/01 09:00:08;;;;;;;0.40;0.20;;;;;;;15.43;62.95;101667.17;111743;1192;94380;-77
2021/10/01 09:02:35;;;;;;;0.40;0.20;;;;;;;15.67;61.49;101673.52;111584;1192;144569;-77
2021/10/01 09:05:02;;;;;;;0.40;0.20;;;;;;;15.80;61.14;101667.79;111619;1193;95545;-78
2021/10/01 09:07:29;;;;;;;0.40;0.20;;;;;;;15.97;60.40;101674.15;111665;1192;94304;-77
2021/10/01 09:09:56;;;;;;;0.40;0.20;;;;;;;16.29;60.16;101670.17;111494;1193;139166;-77
2021/10/01 09:12:25;;;;;;;0.40;0.20;;;;;;;16.14;59.56;101667.20;112214;1193;93961;-77
2021/10/01 09:14:56;;;;;;;0.40;0.10;;;;;;;16.02;60.47;101668.98;111523;1192;138645;-77
2021/10/01 09:17:26;;;;;;;0.40;0.20;;;;;;;15.96;60.14;101664.31;112225;1193;108585;-77
2021/10/01 09:19:55;;;;;;;0.40;0.10;;;;;;;15.83;60.34;101662.16;111773;1193;94012;-77
2021/10/01 09:22:28;;;;;;;0.40;0.10;;;;;;;16.14;60.34;101664.69;111585;1192;138099;-77
2021/10/01 09:25:14;;;;;;;0.40;0.20;;;;;;;16.35;59.68;101664.78;114942;1192;109208;-78
2021/10/01 09:27:42;;;;;;;0.40;0.20;;;;;;;16.31;59.38;101664.21;113285;1192;139734;-77
2021/10/01 09:30:10;;;;;;;0.40;0.20;;;;;;;16.43;59.44;101664.53;111732;1192;94598;-77
2021/10/01 09:32:37;;;;;;;0.40;0.10;;;;;;;16.73;59.29;101662.54;111554;1192;140125;-76
2021/10/01 09:35:17;;;;;;;0.40;0.20;;;;;;;17.12;57.99;101660.95;111711;1192;93929;-76
2021/10/01 09:37:43;;;;;;;0.40;0.20;;;;;;;17.65;57.54;101662.52;111548;1193;108894;-77
2021/10/01 09:40:11;;;;;;;0.40;0.10;;;;;;;18.77;51.88;101663.55;111636;1193;138822;-77
2021/10/01 09:42:43;;;;;;;0.40;0.10;;;;;;;19.62;50.09;101662.91;112637;1192;94188;-77
2021/10/01 09:45:12;;;;;;;0.40;0.10;;;;;;;20.56;47.77;101660.27;114724;1192;139867;-77
2021/10/01 09:47:43;;;;;;;0.40;0.10;;;;;;;21.61;47.82;101657.36;111661;1193;108639;-77
2021/10/01 09:50:12;;;;;;;0.40;0.10;;;;;;;23.37;44.01;101657.71;111871;1192;94490;-77
2021/10/01 09:52:47;;;;;;;0.40;0.10;;;;;;;24.77;39.90;101654.24;111616;1193;139092;-77
2021/10/01 09:55:16;;;;;;;0.40;0.00;;;;;;;25.58;37.69;101653.00;111733;1193;109214;-77
2021/10/01 09:58:06;;;;;;;0.40;0.10;;;;;;;26.37;36.58;101657.73;111592;1194;139001;-78
2021/10/01 10:00:59;;;;;;;0.40;0.00;;;;;;;27.19;33.71;101663.17;111780;1193;94032;-78
2021/10/01 10:03:25;;;;;;;0.40;0.00;;;;;;;27.81;33.84;101660.96;111557;1192;139893;-77
2021/10/01 10:06:02;;;;;;;0.40;0.00;;;;;;;28.70;33.16;101656.76;111621;1192;94419;-76
2021/10/01 10:08:35;;;;;;;0.40;0.00;;;;;;;29.33;30.96;101653.51;111536;1200;139508;-76
2021/10/01 10:11:05;;;;;;;0.40;0.00;;;;;;;29.74;30.20;101653.91;111797;1193;94454;-77
2021/10/01 10:13:55;;;;;;;0.40;0.00;;;;;;;30.39;30.06;101654.06;113022;1193;93928;-76
2021/10/01 10:16:27;;;;;;;0.40;0.00;;;;;;;31.18;29.69;101653.43;111369;1192;138751;-77
2021/10/01 10:18:59;;;;;;;0.40;0.00;;;;;;;31.80;27.78;101652.66;113469;1192;100124;-76
2021/10/01 10:21:26;;;;;;;0.40;0.00;;;;;;;31.97;27.41;101649.96;111468;1192;139580;-77
2021/10/01 10:23:53;;;;;;;0.40;0.00;;;;;;;32.34;26.57;101645.20;111639;1192;95068;-76
2021/10/01 10:26:20;;;;;;;0.40;0.00;;;;;;;32.51;26.33;101640.79;111539;1193;139508;-79
2021/10/01 10:28:47;;;;;;;0.40;0.00;;;;;;;30.66;26.80;101640.63;111717;1193;93915;-76
2021/10/01 10:31:17;;;;;;;0.40;0.00;;;;;;;29.44;28.81;101644.08;111579;1193;94043;-76
2021/10/01 10:33:47;;;;;;;0.40;0.00;;;;;;;28.59;30.04;101641.45;111479;1193;139234;-77
2021/10/01 10:36:32;;;;;;;0.40;0.00;;;;;;;26.60;31.96;101643.69;111682;1193;109004;-77
2021/10/01 10:39:34;;;;;;;0.40;0.00;;;;;;;24.80;35.05;101643.14;111461;1192;139476;-76
2021/10/01 10:42:00;;;;;;;0.40;0.00;;;;;;;23.54;37.43;101645.27;111705;1193;94365;-76
2021/10/01 10:44:54;;;;;;;0.40;0.00;;;;;;;22.73;39.26;101644.27;111639;1193;138770;-75
2021/10/01 10:47:41;;;;;;;0.40;0.00;;;;;;;21.86;41.11;101641.27;111566;1193;109420;-76
2021/10/01 10:50:25;;;;;;;0.40;0.00;;;;;;;20.93;42.77;101639.73;111823;1192;107122;-77
2021/10/01 10:53:05;;;;;;;0.40;0.00;;;;;;;20.19;44.28;101634.05;111619;1193;139610;-77
2021/10/01 10:55:43;;;;;;;0.40;0.10;;;;;;;19.69;45.51;101634.50;111840;1192;93964;-76
2021/10/01 10:58:22;;;;;;;0.40;0.10;;;;;;;19.17;46.10;101636.04;111419;1196;139373;-76
2021/10/01 11:01:00;;;;;;;0.40;0.10;;;;;;;18.78;47.13;101638.48;111750;1193;108508;-77
2021/10/01 11:03:33;;;;;;;0.40;0.10;;;;;;;18.54;47.45;101632.47;111787;1193;140209;-76
2021/10/01 11:06:09;;;;;;;0.40;0.10;;;;;;;18.23;48.44;101622.34;111785;1192;94272;-75
2021/10/01 11:08:40;;;;;;;0.40;0.10;;;;;;;18.12;49.48;101617.55;111648;1193;139851;-76
2021/10/01 11:11:29;;;;;;;0.40;0.10;;;;;;;17.97;50.34;101616.88;111944;1192;108518;-74
2021/10/01 11:14:14;;;;;;;0.40;0.10;;;;;;;17.88;51.48;101617.33;111788;1193;94073;-76
2021/10/01 11:16:45;;;;;;;0.40;0.10;;;;;;;17.81;51.84;101613.65;111733;1192;139666;-77
2021/10/01 11:19:12;;;;;;;0.40;0.10;;;;;;;17.68;51.80;101610.91;111694;1193;109774;-78
2021/10/01 11:21:44;;;;;;;0.40;0.20;;;;;;;17.53;51.85;101607.11;111666;1193;137906;-77
2021/10/01 11:24:18;;;;;;;0.40;0.10;;;;;;;17.41;51.87;101608.10;111834;1192;94862;-76
2021/10/01 11:26:46;;;;;;;0.40;0.10;;;;;;;17.33;52.03;101601.17;111602;1192;140350;-76
2021/10/01 11:29:19;;;;;;;0.40;0.10;;;;;;;17.24;52.29;101604.02;111699;1193;109703;-77
2021/10/01 11:31:46;;;;;;;0.40;0.10;;;;;;;17.10;52.55;101603.95;111776;1192;108501;-76
2021/10/01 11:34:12;;;;;;;0.40;0.10;;;;;;;16.99;53.03;101598.23;111688;1192;138940;-76
2021/10/01 11:36:40;;;;;;;0.40;0.20;;;;;;;16.94;53.64;101595.55;111872;1192;94191;-76
2021/10/01 11:39:15;;;;;;;0.40;0.10;;;;;;;17.00;53.52;101595.88;111767;1193;139717;-76
2021/10/01 11:41:43;;;;;;;0.40;0.10;;;;;;;16.97;53.89;101588.97;111799;1192;108545;-76
2021/10/01 11:44:13;;;;;;;0.40;0.20;;;;;;;17.01;54.13;101589.00;111869;1192;94539;-76
2021/10/01 11:46:50;;;;;;;0.40;0.10;;;;;;;17.07;53.71;101588.98;111429;1193;139537;-76
2021/10/01 11:49:22;;;;;;;0.40;0.10;;;;;;;17.03;53.86;101585.89;111701;1192;109258;-76
2021/10/01 11:51:59;;;;;;;0.40;0.10;;;;;;;17.01;54.04;101585.40;111787;1193;138796;-76
2021/10/01 11:54:26;;;;;;;0.40;0.20;;;;;;;17.02;53.99;101585.56;111649;1193;94388;-76
2021/10/01 11:57:01;;;;;;;0.40;0.10;;;;;;;17.02;54.07;101585.38;111763;1192;139831;-76
2021/10/01 11:59:48;;;;;;;0.40;0.10;;;;;;;17.00;53.85;101577.21;112024;1193;108659;-75
2021/10/01 12:02:39;;;;;;;0.40;0.20;;;;;;;17.16;54.31;101580.23;111566;1193;108790;-76
2021/10/01 12:05:18;;;;;;;0.40;0.10;;;;;;;17.30;54.40;101573.10;111794;1199;139690;-77
2021/10/01 12:07:50;;;;;;;0.40;0.20;;;;;;;17.25;52.78;101571.14;111871;1192;95263;-75
2021/10/01 12:10:17;;;;;;;0.40;0.10;;;;;;;17.22;53.09;101569.09;112061;1192;138498;-76
2021/10/01 12:13:03;;;;;;;0.40;0.20;;;;;;;17.30;53.62;101569.70;111538;1193;108173;-76
2021/10/01 12:15:50;;;;;;;0.40;0.10;;;;;;;17.42;52.70;101567.47;111692;1196;138825;-76
2021/10/01 12:18:45;;;;;;;0.40;0.10;;;;;;;17.34;52.30;101562.39;111744;1193;93958;-76
2021/10/01 12:21:15;;;;;;;0.40;0.10;;;;;;;17.23;51.69;101562.04;111689;1192;138646;-77
2021/10/01 12:23:57;;;;;;;0.40;0.20;;;;;;;17.13;50.89;101560.59;111825;1193;107897;-77
2021/10/01 12:26:25;;;;;;;0.40;0.10;;;;;;;17.03;50.46;101559.49;111593;1193;93976;-76
2021/10/01 12:29:12;;;;;;;0.40;0.10;;;;;;;16.98;50.25;101553.60;111793;1192;138721;-76
2021/10/01 12:31:53;;;;;;;0.40;0.10;;;;;;;16.99;52.28;101549.26;111836;1193;107940;-76
2021/10/01 12:34:26;;;;;;;0.40;0.10;;;;;;;17.08;54.01;101548.75;111595;1193;137848;-76
2021/10/01 12:37:13;;;;;;;0.40;0.20;;;;;;;17.07;54.89;101540.18;111898;1193;94391;-75
2021/10/01 12:39:41;;;;;;;0.40;0.10;;;;;;;17.06;55.40;101540.76;111997;1192;139012;-76
2021/10/01 12:42:14;;;;;;;0.40;0.10;;;;;;;17.06;56.26;101538.23;111636;1193;109549;-76
2021/10/01 12:44:43;;;;;;;0.40;0.10;;;;;;;17.03;55.52;101536.91;111872;1192;109430;-78
2021/10/01 12:47:18;;;;;;;0.40;0.20;;;;;;;16.91;55.34;101531.77;112268;1193;137663;-78
2021/10/01 12:50:01;;;;;;;0.40;0.10;;;;;;;16.84;56.24;101535.75;111999;1193;94631;-77
2021/10/01 12:52:30;;;;;;;0.40;0.10;;;;;;;16.78;56.38;101525.52;111834;1193;139899;-77
2021/10/01 12:55:15;;;;;;;0.40;0.20;;;;;;;16.80;57.50;101524.92;111757;1193;108617;-77
2021/10/01 12:57:45;;;;;;;41.10;39.30;;;;;;;16.77;58.39;101524.33;111591;1192;139402;-76
2021/10/01 13:00:16;;;;;;;0.40;0.10;;;;;;;16.76;58.92;101520.59;112153;1192;94020;-77
2021/10/01 13:03:03;;;;;;;0.40;0.20;;;;;;;16.79;58.66;101517.59;112089;1192;108984;-77
2021/10/01 13:05:35;;;;;;;0.40;0.10;;;;;;;16.73;57.85;101518.72;112092;1193;137074;-77
2021/10/01 13:08:02;;;;;;;0.40;0.10;;;;;;;16.63;57.94;101517.98;111605;1193;93882;-76